createdAt,value
2022-09-09T00:01:39.043Z,6.80
2022-09-09T00:04:26.839Z,8.10
2022-09-09T00:06:54.343Z,7.10
2022-09-09T00:09:30.095Z,5.30
2022-09-09T00:12:40.141Z,7.40
2022-09-09T00:15:20.442Z,7.30
2022-09-09T00:17:59.452Z,6.70
2022-09-09T00:20:35.285Z,6.00
2022-09-09T00:23:12.933Z,6.30
2022-09-09T00:25:52.608Z,8.50
2022-09-09T00:28:24.461Z,8.50
2022-09-09T00:30:52.352Z,9.50
2022-09-09T00:33:24.300Z,9.20
2022-09-09T00:35:58.771Z,7.00
2022-09-09T00:38:42.407Z,6.80
2022-09-09T00:41:19.260Z,8.60
2022-09-09T00:44:08.022Z,10.30
2022-09-09T00:46:58.852Z,8.00
2022-09-09T00:49:44.310Z,7.90
2022-09-09T00:52:43.816Z,8.40
2022-09-09T00:55:26.859Z,7.60
2022-09-09T00:57:55.179Z,9.40
2022-09-09T01:00:29.678Z,8.40
2022-09-09T01:03:06.853Z,7.90
2022-09-09T01:05:55.086Z,7.00
2022-09-09T01:08:44.483Z,8.40
2022-09-09T01:11:26.802Z,7.90
2022-09-09T01:14:26.415Z,7.60
2022-09-09T01:17:00.906Z,8.10
2022-09-09T01:19:44.042Z,8.50
2022-09-09T01:22:35.592Z,8.60
2022-09-09T01:25:08.033Z,7.70
2022-09-09T01:27:54.659Z,7.70
2022-09-09T01:30:23.557Z,7.40
2022-09-09T01:33:01.108Z,7.40
2022-09-09T01:36:01.680Z,8.60
2022-09-09T01:38:36.791Z,7.20
2022-09-09T01:41:05.187Z,7.90
2022-09-09T01:43:44.324Z,7.40
2022-09-09T01:46:13.559Z,9.40
2022-09-09T01:48:44.173Z,8.80
2022-09-09T01:51:12.664Z,9.30
2022-09-09T01:53:42.932Z,9.30
2022-09-09T01:56:36.526Z,10.50
2022-09-09T01:59:36.040Z,7.50
2022-09-09T02:02:24.118Z,7.30
2022-09-09T02:05:09.832Z,8.20
2022-09-09T02:07:46.012Z,9.70
2022-09-09T02:10:41.195Z,8.50
2022-09-09T02:13:18.568Z,7.70
2022-09-09T02:16:10.248Z,9.10
2022-09-09T02:18:57.433Z,6.80
2022-09-09T02:21:36.037Z,8.70
2022-09-09T02:24:10.345Z,9.40
2022-09-09T02:26:43.609Z,8.00
2022-09-09T02:29:19.975Z,6.30
2022-09-09T02:31:50.325Z,7.80
2022-09-09T02:34:25.125Z,8.00
2022-09-09T02:36:55.952Z,10.00
2022-09-09T02:39:23.627Z,8.70
2022-09-09T02:41:51.870Z,9.60
2022-09-09T02:44:19.978Z,8.60
2022-09-09T02:47:21.514Z,6.80
2022-09-09T02:50:08.109Z,7.80
2022-09-09T02:52:45.579Z,7.90
2022-09-09T02:55:35.327Z,9.30
2022-09-09T02:58:08.124Z,8.60
2022-09-09T03:00:37.290Z,8.80
2022-09-09T03:03:05.377Z,8.30
2022-09-09T03:05:33.509Z,7.80
2022-09-09T03:08:01.626Z,7.10
2022-09-09T03:10:29.699Z,9.00
2022-09-09T03:12:57.336Z,7.00
2022-09-09T03:15:28.125Z,8.10
2022-09-09T03:17:57.909Z,7.30
2022-09-09T03:20:27.624Z,8.20
2022-09-09T03:22:56.408Z,7.70
2022-09-09T03:25:24.900Z,9.60
2022-09-09T03:27:55.926Z,8.90
2022-09-09T03:30:25.824Z,7.90
2022-09-09T03:32:56.366Z,7.10
2022-09-09T03:35:24.752Z,9.30
2022-09-09T03:37:52.459Z,7.90
2022-09-09T03:40:21.109Z,7.40
2022-09-09T03:42:49.591Z,7.40
2022-09-09T03:45:18.875Z,7.80
2022-09-09T03:47:47.066Z,7.90
2022-09-09T03:50:16.154Z,7.70
2022-09-09T03:52:47.721Z,9.40
2022-09-09T03:55:19.656Z,7.90
2022-09-09T03:57:47.460Z,8.10
2022-09-09T04:00:18.277Z,9.00
2022-09-09T04:02:47.893Z,6.90
2022-09-09T04:05:16.923Z,10.00
2022-09-09T04:07:45.807Z,8.10
2022-09-09T04:10:14.479Z,6.90
2022-09-09T04:12:42.226Z,7.80
2022-09-09T04:15:11.537Z,9.30
2022-09-09T04:17:39.577Z,7.10
2022-09-09T04:20:12.186Z,8.00
2022-09-09T04:22:40.076Z,5.50
2022-09-09T04:25:08.751Z,7.50
2022-09-09T04:27:37.018Z,6.90
2022-09-09T04:30:06.012Z,7.80
2022-09-09T04:32:34.803Z,6.90
2022-09-09T04:35:02.577Z,7.30
2022-09-09T04:37:31.250Z,6.60
2022-09-09T04:40:02.979Z,8.60
2022-09-09T04:42:35.473Z,7.60
2022-09-09T04:45:03.768Z,6.90
2022-09-09T04:47:32.870Z,6.90
2022-09-09T04:50:01.561Z,5.90
2022-09-09T04:52:29.841Z,6.10
2022-09-09T04:54:57.478Z,6.10
2022-09-09T04:57:25.361Z,6.30
2022-09-09T04:59:53.434Z,7.70
2022-09-09T05:02:21.207Z,6.10
2022-09-09T05:04:50.701Z,7.00
2022-09-09T05:07:18.373Z,7.70
2022-09-09T05:09:46.455Z,7.20
2022-09-09T05:12:14.480Z,5.80
2022-09-09T05:14:48.941Z,6.70
2022-09-09T05:17:17.237Z,6.30
2022-09-09T05:19:45.549Z,7.30
2022-09-09T05:22:13.539Z,5.80
2022-09-09T05:24:45.158Z,6.20
2022-09-09T05:27:13.309Z,6.30
2022-09-09T05:29:44.330Z,6.90
2022-09-09T05:32:15.477Z,7.70
2022-09-09T05:34:44.335Z,5.40
2022-09-09T05:37:11.943Z,6.40
2022-09-09T05:39:39.625Z,6.00
2022-09-09T05:42:07.420Z,6.90
2022-09-09T05:44:35.535Z,6.70
2022-09-09T05:47:03.958Z,8.00
2022-09-09T05:49:31.818Z,6.00
2022-09-09T05:52:00.912Z,8.50
2022-09-09T05:54:28.522Z,6.10
2022-09-09T05:56:57.002Z,8.10
2022-09-09T05:59:24.678Z,7.00
2022-09-09T06:01:54.095Z,5.90
2022-09-09T06:04:28.905Z,5.00
2022-09-09T06:06:56.552Z,5.50
2022-09-09T06:09:24.376Z,5.90
2022-09-09T06:11:52.986Z,5.90
2022-09-09T06:14:37.644Z,7.20
2022-09-09T06:17:06.076Z,7.80
2022-09-09T06:19:34.100Z,4.80
2022-09-09T06:22:01.942Z,5.40
2022-09-09T06:24:32.546Z,5.50
2022-09-09T06:27:04.150Z,6.80
2022-09-09T06:29:34.877Z,6.00
2022-09-09T06:32:04.240Z,6.30
2022-09-09T06:34:32.255Z,5.30
2022-09-09T06:37:01.023Z,5.40
2022-09-09T06:39:36.702Z,4.20
2022-09-09T06:42:05.042Z,5.90
2022-09-09T06:47:22.756Z,5.60
2022-09-09T06:49:51.794Z,5.50
2022-09-09T06:52:19.659Z,5.40
2022-09-09T06:54:48.394Z,5.90
2022-09-09T06:57:36.447Z,5.00
2022-09-09T07:00:07.286Z,4.80
2022-09-09T07:02:40.017Z,3.60
2022-09-09T07:05:09.416Z,5.20
2022-09-09T07:07:37.653Z,5.70
2022-09-09T07:10:06.418Z,5.40
2022-09-09T07:12:34.675Z,4.40
2022-09-09T07:15:02.660Z,3.80
2022-09-09T07:17:30.453Z,5.70
2022-09-09T07:19:59.120Z,3.60
2022-09-09T07:22:29.074Z,4.20
2022-09-09T07:24:57.631Z,3.40
2022-09-09T07:27:25.807Z,4.50
2022-09-09T07:29:55.080Z,5.40
2022-09-09T07:32:24.309Z,4.40
2022-09-09T07:35:06.551Z,5.30
2022-09-09T07:37:37.960Z,4.50
2022-09-09T07:40:07.072Z,4.30
2022-09-09T07:42:40.896Z,4.40
2022-09-09T07:45:09.259Z,3.90
2022-09-09T07:47:36.991Z,3.60
2022-09-09T07:50:05.422Z,5.20
2022-09-09T07:52:34.852Z,4.20
2022-09-09T07:55:05.480Z,4.10
2022-09-09T07:57:33.797Z,3.90
2022-09-09T08:00:03.712Z,4.20
2022-09-09T08:02:40.063Z,4.20
2022-09-09T08:05:09.599Z,4.30
2022-09-09T08:07:38.104Z,4.50
2022-09-09T08:10:07.232Z,4.90
2022-09-09T08:13:01.374Z,6.00
2022-09-09T08:15:31.390Z,5.60
2022-09-09T08:17:59.211Z,4.70
2022-09-09T08:20:26.852Z,5.00
2022-09-09T08:22:56.448Z,5.80
2022-09-09T08:25:24.084Z,6.60
2022-09-09T08:27:54.127Z,5.10
2022-09-09T08:30:22.115Z,5.80
2022-09-09T08:32:53.822Z,5.50
2022-09-09T08:35:21.708Z,5.40
2022-09-09T08:37:56.985Z,4.80
2022-09-09T08:40:34.215Z,6.50
2022-09-09T08:43:04.947Z,6.90
2022-09-09T08:45:51.404Z,4.60
2022-09-09T08:48:46.656Z,5.60
2022-09-09T08:51:15.846Z,6.80
2022-09-09T08:53:49.145Z,6.00
2022-09-09T08:56:22.629Z,10.10
2022-09-09T08:58:55.274Z,7.00
2022-09-09T09:01:51.439Z,6.50
2022-09-09T09:05:06.279Z,5.50
2022-09-09T09:07:43.337Z,5.90
2022-09-09T09:10:41.512Z,6.40
2022-09-09T09:13:16.844Z,6.60
2022-09-09T09:15:51.331Z,5.90
2022-09-09T09:18:19.579Z,6.70
2022-09-09T09:20:56.104Z,6.50
2022-09-09T09:23:27.108Z,6.50
2022-09-09T09:26:01.330Z,9.60
2022-09-09T09:28:32.689Z,6.50
2022-09-09T09:31:23.328Z,6.40
2022-09-09T09:34:15.586Z,7.00
2022-09-09T09:37:22.139Z,7.40
2022-09-09T09:40:05.749Z,6.30
2022-09-09T09:45:15.745Z,5.70
2022-09-09T09:47:43.468Z,7.10
2022-09-09T09:50:19.948Z,7.20
2022-09-09T09:53:07.499Z,7.20
2022-09-09T09:55:59.699Z,7.30
2022-09-09T09:58:48.442Z,7.50
2022-09-09T10:01:35.589Z,9.60
2022-09-09T10:04:24.615Z,8.00
2022-09-09T10:06:55.399Z,8.80
2022-09-09T10:09:34.121Z,11.00
2022-09-09T10:12:21.783Z,7.00
2022-09-09T10:15:03.196Z,7.70
2022-09-09T10:17:36.899Z,7.60
2022-09-09T10:20:10.523Z,9.50
2022-09-09T10:22:44.973Z,9.50
2022-09-09T10:25:12.840Z,8.50
2022-09-09T10:28:11.562Z,8.60
2022-09-09T10:31:04.623Z,8.80
2022-09-09T10:33:50.927Z,8.10
2022-09-09T10:36:22.941Z,9.90
2022-09-09T10:38:56.191Z,7.80
2022-09-09T10:41:45.955Z,7.80
2022-09-09T10:44:29.424Z,8.90
2022-09-09T10:47:32.937Z,8.60
2022-09-09T10:50:09.475Z,9.30
2022-09-09T10:52:49.491Z,10.00
2022-09-09T10:55:20.562Z,9.20
2022-09-09T10:57:53.047Z,10.50
2022-09-09T11:00:47.300Z,11.60
2022-09-09T11:03:33.203Z,9.40
2022-09-09T11:06:07.878Z,9.70
2022-09-09T11:08:39.255Z,9.50
2022-09-09T11:11:27.169Z,8.70
2022-09-09T11:14:18.966Z,10.60
2022-09-09T11:16:51.914Z,10.30
2022-09-09T11:19:36.844Z,9.20
2022-09-09T11:22:19.010Z,10.30
2022-09-09T11:24:55.752Z,10.20
2022-09-09T11:27:45.236Z,10.10
2022-09-09T11:30:55.667Z,10.40
2022-09-09T11:33:51.068Z,10.40
2022-09-09T11:36:25.776Z,11.60
2022-09-09T11:39:22.018Z,10.40
2022-09-09T11:41:50.902Z,11.50
2022-09-09T11:44:30.963Z,11.50
2022-09-09T11:46:58.619Z,12.60
2022-09-09T11:49:29.482Z,12.60
2022-09-09T11:51:57.075Z,11.10
2022-09-09T11:54:32.953Z,12.30
2022-09-09T11:57:00.737Z,12.40
2022-09-09T11:59:31.008Z,12.20
2022-09-09T12:02:13.783Z,12.40
2022-09-09T12:05:01.822Z,12.20
2022-09-09T12:07:41.037Z,11.40
2022-09-09T12:10:27.203Z,12.00
2022-09-09T12:12:54.964Z,12.00
2022-09-09T12:15:29.644Z,12.30
2022-09-09T12:18:03.130Z,12.20
2022-09-09T12:20:32.428Z,13.90
2022-09-09T12:23:17.053Z,14.40
2022-09-09T12:26:06.769Z,14.50
2022-09-09T12:29:05.415Z,15.00
2022-09-09T12:31:43.894Z,15.40
2022-09-09T12:34:33.142Z,13.20
2022-09-09T12:37:14.932Z,14.60
2022-09-09T12:39:54.832Z,13.50
2022-09-09T12:42:23.612Z,14.20
2022-09-09T12:45:17.861Z,12.60
2022-09-09T12:47:55.050Z,13.20
2022-09-09T12:50:31.350Z,15.50
2022-09-09T12:53:02.851Z,13.30
2022-09-09T12:55:34.236Z,12.50
2022-09-09T12:58:06.406Z,12.70
2022-09-09T13:00:35.796Z,13.90
2022-09-09T13:03:20.429Z,13.70
2022-09-09T13:05:48.399Z,13.80
2022-09-09T13:08:23.779Z,14.00
2022-09-09T13:11:02.881Z,14.40
2022-09-09T13:13:37.226Z,13.80
2022-09-09T13:16:09.244Z,15.60
2022-09-09T13:18:41.116Z,14.70
2022-09-09T13:21:08.913Z,16.30
2022-09-09T13:23:38.490Z,15.40
2022-09-09T13:26:24.105Z,16.60
2022-09-09T13:28:53.829Z,17.20
2022-09-09T13:31:31.171Z,17.00
2022-09-09T13:33:58.917Z,14.30
2022-09-09T13:36:35.712Z,16.10
2022-09-09T13:39:05.021Z,15.70
2022-09-09T13:41:42.991Z,15.00
2022-09-09T13:44:29.924Z,16.40
2022-09-09T13:47:10.045Z,17.30
2022-09-09T13:49:38.358Z,18.90
2022-09-09T13:52:12.861Z,17.60
2022-09-09T13:54:42.945Z,13.90
2022-09-09T13:57:19.567Z,16.10
2022-09-09T14:00:04.207Z,15.50
2022-09-09T14:02:32.690Z,18.60
2022-09-09T14:05:00.712Z,17.50
2022-09-09T14:07:28.495Z,17.60
2022-09-09T14:09:56.539Z,16.20
2022-09-09T14:12:24.927Z,19.50
2022-09-09T14:14:52.604Z,21.90
2022-09-09T14:17:20.197Z,21.60
2022-09-09T14:19:48.770Z,23.40
2022-09-09T14:22:16.398Z,21.90
2022-09-09T14:24:44.010Z,20.20
2022-09-09T14:27:11.625Z,19.00
2022-09-09T14:29:39.305Z,20.90
2022-09-09T14:32:10.714Z,21.70
2022-09-09T14:34:41.552Z,23.20
2022-09-09T14:37:09.178Z,20.90
2022-09-09T14:39:36.911Z,20.00
2022-09-09T14:42:05.857Z,23.20
2022-09-09T14:44:34.567Z,30.50
2022-09-09T14:47:02.150Z,23.60
2022-09-09T14:49:29.748Z,21.10
2022-09-09T14:51:57.359Z,26.40
2022-09-09T14:54:24.926Z,23.40
2022-09-09T14:56:52.538Z,20.30
2022-09-09T14:59:20.325Z,24.00
2022-09-09T15:01:48.112Z,28.10
2022-09-09T15:04:17.692Z,22.60
2022-09-09T15:06:49.064Z,20.50
2022-09-09T15:09:16.720Z,19.60
2022-09-09T15:11:45.300Z,23.00
2022-09-09T15:14:13.162Z,32.60
2022-09-09T15:16:41.553Z,26.70
2022-09-09T15:19:10.262Z,29.90
2022-09-09T15:21:39.216Z,20.80
2022-09-09T15:24:09.141Z,19.80
2022-09-09T15:26:39.413Z,21.80
2022-09-09T15:29:08.912Z,31.10
2022-09-09T15:31:37.152Z,46.30
2022-09-09T15:34:07.602Z,65.10
2022-09-09T15:36:40.769Z,115.90
2022-09-09T15:39:13.322Z,62.60
2022-09-09T15:41:41.224Z,64.50
2022-09-09T15:44:11.901Z,49.50
2022-09-09T15:46:44.819Z,37.20
2022-09-09T15:49:19.150Z,35.80
2022-09-09T15:51:52.335Z,69.10
2022-09-09T15:54:24.220Z,53.60
2022-09-09T15:56:58.210Z,20.50
2022-09-09T15:59:28.710Z,28.50
2022-09-09T16:01:57.247Z,32.10
2022-09-09T16:04:25.822Z,29.70
2022-09-09T16:06:56.053Z,17.40
2022-09-09T16:09:23.883Z,17.70
2022-09-09T16:11:52.893Z,17.80
2022-09-09T16:14:20.804Z,23.60
2022-09-09T16:16:49.344Z,17.90
2022-09-09T16:19:16.988Z,17.10
2022-09-09T16:21:47.431Z,19.20
2022-09-09T16:24:18.889Z,17.10
2022-09-09T16:26:50.130Z,16.70
2022-09-09T16:29:19.729Z,16.30
2022-09-09T16:31:48.964Z,15.60
2022-09-09T16:34:19.473Z,16.80
2022-09-09T16:36:49.309Z,18.00
2022-09-09T16:39:19.248Z,16.70
2022-09-09T16:41:48.516Z,17.90
2022-09-09T16:44:19.271Z,27.60
2022-09-09T16:46:49.705Z,46.20
2022-09-09T16:49:17.440Z,52.00
2022-09-09T16:51:50.759Z,46.90
2022-09-09T16:54:19.335Z,27.70
2022-09-09T16:56:48.830Z,18.10
2022-09-09T16:59:19.607Z,15.20
2022-09-09T17:01:50.044Z,65.90
2022-09-09T17:04:24.743Z,48.60
2022-09-09T17:06:54.203Z,29.60
2022-09-09T17:09:23.645Z,25.40
2022-09-09T17:11:53.090Z,28.80
2022-09-09T17:14:22.672Z,102.20
2022-09-09T17:16:50.930Z,44.20
2022-09-09T17:19:19.108Z,37.50
2022-09-09T17:22:22.139Z,32.20
2022-09-09T17:24:39.201Z,101.70
2022-09-09T17:27:07.261Z,52.60
2022-09-09T17:29:37.227Z,39.00
2022-09-09T17:32:09.023Z,24.20
2022-09-09T17:34:37.138Z,64.90
2022-09-09T17:37:06.844Z,56.30
2022-09-09T17:39:34.771Z,29.50
2022-09-09T17:42:03.292Z,38.30
2022-09-09T17:44:33.325Z,19.20
2022-09-09T17:47:01.712Z,27.70
2022-09-09T17:49:29.380Z,31.40
2022-09-09T17:51:57.519Z,36.00
2022-09-09T17:54:25.114Z,60.30
2022-09-09T17:56:53.247Z,93.60
2022-09-09T17:59:21.222Z,39.80
2022-09-09T18:01:50.909Z,33.20
2022-09-09T18:04:19.925Z,28.30
2022-09-09T18:06:50.622Z,28.30
2022-09-09T18:09:25.193Z,77.10
2022-09-09T18:11:55.627Z,42.80
2022-09-09T18:14:26.798Z,45.00
2022-09-09T18:16:54.608Z,46.10
2022-09-09T18:19:25.914Z,35.30
2022-09-09T18:21:57.428Z,45.10
2022-09-09T18:24:27.962Z,23.80
2022-09-09T18:26:55.699Z,51.60
2022-09-09T18:29:25.327Z,34.90
2022-09-09T18:31:54.831Z,40.80
2022-09-09T18:34:25.620Z,45.90
2022-09-09T18:36:55.813Z,42.90
2022-09-09T18:39:27.612Z,37.90
2022-09-09T18:42:00.218Z,57.80
2022-09-09T18:44:31.814Z,38.00
2022-09-09T18:47:00.212Z,27.80
2022-09-09T18:49:28.154Z,23.60
2022-09-09T18:51:56.937Z,26.50
2022-09-09T18:54:29.411Z,18.90
2022-09-09T18:56:59.555Z,49.40
2022-09-09T18:59:28.229Z,33.50
2022-09-09T19:01:55.957Z,25.60
2022-09-09T19:04:24.394Z,45.90
2022-09-09T19:06:57.757Z,33.90
2022-09-09T19:09:29.418Z,31.50
2022-09-09T19:11:59.554Z,23.50
2022-09-09T19:14:28.017Z,29.20
2022-09-09T19:16:56.422Z,27.30
2022-09-09T19:19:31.129Z,29.40
2022-09-09T19:22:00.440Z,22.00
2022-09-09T19:24:31.137Z,35.50
2022-09-09T19:27:02.722Z,32.00
2022-09-09T19:29:32.641Z,29.60
2022-09-09T19:32:51.721Z,35.50
2022-09-09T19:34:52.277Z,28.00
2022-09-09T19:37:20.423Z,17.90
2022-09-09T19:39:49.821Z,36.90
2022-09-09T19:42:17.687Z,22.60
2022-09-09T19:44:46.472Z,20.80
2022-09-09T19:47:14.869Z,20.80
2022-09-09T19:49:46.781Z,23.30
2022-09-09T19:52:16.943Z,14.10
2022-09-09T19:54:46.637Z,20.40
2022-09-09T19:57:14.454Z,18.40
2022-09-09T19:59:42.376Z,18.50
2022-09-09T20:02:13.008Z,15.40
2022-09-09T20:04:43.228Z,14.70
2022-09-09T20:07:10.917Z,16.40
2022-09-09T20:09:38.654Z,12.90
2022-09-09T20:12:06.423Z,19.20
2022-09-09T20:14:39.176Z,20.30
2022-09-09T20:17:07.936Z,15.70
2022-09-09T20:19:35.863Z,14.00
2022-09-09T20:22:03.592Z,12.20
2022-09-09T20:24:31.197Z,13.10
2022-09-09T20:26:58.864Z,14.20
2022-09-09T20:29:26.424Z,16.10
2022-09-09T20:31:54.105Z,17.00
2022-09-09T20:34:22.166Z,18.20
2022-09-09T20:36:50.958Z,16.70
2022-09-09T20:39:20.451Z,16.00
2022-09-09T20:41:48.755Z,13.50
2022-09-09T20:44:19.864Z,13.80
2022-09-09T20:46:54.188Z,13.40
2022-09-09T20:49:24.115Z,12.10
2022-09-09T20:51:53.162Z,12.30
2022-09-09T20:54:26.282Z,14.00
2022-09-09T20:56:55.239Z,12.50
2022-09-09T20:59:25.220Z,12.00
2022-09-09T21:01:54.415Z,12.50
2022-09-09T21:04:22.803Z,13.10
2022-09-09T21:06:51.920Z,10.90
2022-09-09T21:09:22.413Z,10.90
2022-09-09T21:11:50.778Z,11.40
2022-09-09T21:14:18.373Z,11.70
2022-09-09T21:16:46.053Z,10.60
2022-09-09T21:19:13.682Z,13.00
2022-09-09T21:21:41.345Z,11.30
2022-09-09T21:24:09.821Z,11.80
2022-09-09T21:26:37.568Z,10.00
2022-09-09T21:29:05.954Z,9.30
2022-09-09T21:31:33.744Z,10.10
2022-09-09T21:34:01.485Z,8.80
2022-09-09T21:36:29.466Z,8.80
2022-09-09T21:38:58.995Z,9.90
2022-09-09T21:41:27.343Z,8.20
2022-09-09T21:43:55.550Z,9.50
2022-09-09T21:46:26.349Z,8.30
2022-09-09T21:48:56.438Z,9.40
2022-09-09T21:51:24.649Z,8.90
2022-09-09T21:53:55.426Z,8.90
2022-09-09T21:56:23.573Z,8.60
2022-09-09T21:58:58.845Z,9.00
2022-09-09T22:01:26.638Z,9.40
2022-09-09T22:03:54.621Z,9.10
2022-09-09T22:06:22.244Z,8.20
2022-09-09T22:08:50.096Z,8.80
2022-09-09T22:11:22.274Z,10.20
2022-09-09T22:13:50.643Z,8.70
2022-09-09T22:16:20.285Z,9.10
2022-09-09T22:18:59.063Z,8.70
2022-09-09T22:21:28.471Z,8.40
2022-09-09T22:24:02.159Z,8.90
2022-09-09T22:26:32.717Z,9.20
2022-09-09T22:29:00.854Z,9.90
2022-09-09T22:31:28.577Z,8.30
2022-09-09T22:33:56.546Z,10.00
2022-09-09T22:36:25.904Z,10.30
2022-09-09T22:38:54.558Z,8.80
2022-09-09T22:41:22.466Z,9.50
2022-09-09T22:43:50.342Z,8.10
2022-09-09T22:46:18.848Z,10.50
2022-09-09T22:48:46.897Z,9.30
2022-09-09T22:51:15.582Z,9.40
2022-09-09T22:53:45.187Z,10.30
2022-09-09T22:56:17.104Z,10.60
2022-09-09T22:58:46.263Z,9.30
2022-09-09T23:01:17.328Z,10.10
2022-09-09T23:03:46.273Z,8.90
2022-09-09T23:06:22.334Z,9.30
2022-09-09T23:08:55.667Z,10.20
2022-09-09T23:11:27.908Z,9.20
2022-09-09T23:13:56.908Z,9.60
2022-09-09T23:16:31.350Z,9.80
2022-09-09T23:19:02.387Z,8.90
2022-09-09T23:21:31.101Z,9.10
2022-09-09T23:24:00.381Z,9.30
2022-09-09T23:26:29.566Z,10.40
2022-09-09T23:29:00.176Z,11.10
2022-09-09T23:31:32.748Z,10.70
2022-09-09T23:34:01.487Z,9.50
2022-09-09T23:36:30.246Z,9.80
2022-09-09T23:39:00.003Z,11.00
2022-09-09T23:41:28.133Z,9.80
2022-09-09T23:43:57.565Z,10.40
2022-09-09T23:46:28.502Z,10.10
2022-09-09T23:48:57.819Z,10.20
2022-09-09T23:51:28.158Z,11.50
2022-09-09T23:53:57.633Z,10.90
2022-09-09T23:56:28.809Z,10.00
2022-09-09T23:58:56.512Z,11.40
